Capitol Logistics 910

Operating for DHL



EDDM
Franz Josef Strauss International Airport
Munich, DE
EDDK
Cologne Bonn Airport
Cologne, DE

Route Details

Aircraft Information
Group: European Fleet
Types: A30F,A31F,B738
Route Data
Demand: M
Distance: 236nm
Duration: 1h 00m
Recm'd Route: GIVM1N GIVMI Y101 OSBIT L984 ASKIK T840 GULKO GULK2C
Origin Wx: EDDM 270550Z AUTO 26008KT 230V290 9999 FEW047 15/11 Q1022 NOSIG
Dest. Wx: EDDK 270620Z AUTO 26013KT 3400 -RADZ BR BKN008 13/12 Q1020 RERA TEMPO RADZ
Notes:

Financial History
Total Freight: 289,738lbs
Average Load: 48,290lbs/flt
Fuel Used: 56,087lbs
Avg. Fuel Used: 9,348lbs/flt
Fuel Expense: $18,148
Avg. Fuel Expense: $3,025
Avg. Fuel Cost: $0.33/lbs
Total Gross Income: $599,150
Pilot Pay: $1,354
Total Expenses: $87,405
Total Revenue: $492,162
Average Revenue: $99,858.35